Detall de PIREP

Printer-friendly versionPDF version

[2013/09/11 07:03:00]
Flight IATA:CT3201
Pilot Number:012
Company ICAO:CAT
Aircraft Type:B744/E
PAX:342
Departing Airport: EHAM
Destination Airport: LEPA
Alternate Airport:LEBL
Online: VATSIM
Route:LEKKO UN872 KOVIN UM728 RESMI UN857 DIRMO UN855 PPG UP84 LORES
Flight Level:F390
No Slew and time accel
No pause
Crash detect
Detect pilot in Cockpit between each 30 and 45 minutes
07:03 Zero fuel Weight: 462201 Lbs, Fuel Weight: 90520 Lbs
07:03 VATSIM:EHAM 110625Z 34005KT 9999 VCSH FEW016 FEW022CB 13/12 Q1013 NOSIG
07:03 VATSIM:LEPA 110630Z 03003KT 350V060 9999 FEW016 FEW026TCU 18/17 Q1019 RERA NOSIG
07:03 VOICE CATALONIAN
07:05 Parking Brakes off
07:19 Take-off
07:19 Take off Weight: 549065 Lbs
07:19 Wind: 320º @ 004 Knots Heading: 002º
07:19 POS N52º 18´ 58´´ E004º 44´ 20´´
07:19 Gear Up: 187 Knots
07:19 Flaps:3 at 187 Knots
07:19 Flaps:2 at 197 Knots
07:19 Flaps:1 at 209 Knots
07:20 Flaps:0 at 236 Knots
07:34 Wind:014º@066 Knots Heading: 202º Ground Speed: 560 Knots Altitude 36246 ft
07:35 TOC
07:35 Fuel Weight: 74870 Lb
07:49 Wind:008º@050 Knots Heading: 215º Ground Speed: 534 Knots Altitude 39166 ft
08:04 Wind:350º@033 Knots Heading: 157º Ground Speed: 522 Knots Altitude 39248 ft
08:19 Wind:324º@020 Knots Heading: 180º Ground Speed: 505 Knots Altitude 39251 ft
08:34 Wind:277º@032 Knots Heading: 188º Ground Speed: 489 Knots Altitude 39229 ft
08:41 TOD
08:41 Fuel Weight: 53355 Lb
08:49 Wind:262º@033 Knots Heading: 186º Ground Speed: 367 Knots Altitude 21584 ft
08:58 Flaps:1 at 222 Knots
08:58 Flaps:2 at 211 Knots
08:59 Flaps:3 at 211 Knots
08:59 Gear Down: 201 Knots
09:00 Flaps:4 at 176 Knots
09:04 Wind:010º@003 Knots Heading: 239º Ground Speed: 179 Knots Altitude 2500 ft
09:04 Flaps:5 at 167 Knots
09:04 Flaps:6 at 155 Knots
09:08 TouchDown:Rate -162 ft/min Speed: 130 Knots
09:08 VATSIM:LEPA 110830Z 05008KT 020V080 9999 FEW010 22/19 Q1019 NOSIG
09:08 Land
09:08 Wind:359º@002 Knots
09:08 Heading: 238º
09:08 Flight Duration: 01:49
09:08 Landing Weight: 509045 Lbs
09:08 POS N39º 32´ 47´´ E002º 44´ 34´´
09:13 Parking brakes on
09:13 Block to Block Duration: 02:08
09:13 Final Fuel: 45983 Lbls
09:13 Spent Fuel: 44537 Lbls
09:13 Flight Length: 820 NM
09:13 TOD Land Length: 134 NM

Exportar CSV

Powered by Drupal - Modified by Danger4k